Time;durP1;ratioP1;P1;durP2;ratioP2;P2;SDS_P1;SDS_P2;PMS_P1;PMS_P2;Temp;Humidity;BMP_temperature;BMP_pressure;BME280_temperature;BME280_humidity;BME280_pressure;Samples;Min_cycle;Max_cycle;Signal;HPM_P1;HPM_P2
2022/07/08 00:02:41;;;;;;;3.83;1.67;;;;;;;;;;10246568;28;20072;-66
2022/07/08 00:07:39;;;;;;;6.97;1.83;;;;;;;;;;10242563;28;20072;-66
2022/07/08 00:12:38;;;;;;;2.42;1.90;;;;;;;;;;10242095;28;20069;-65
2022/07/08 00:17:37;;;;;;;2.35;1.60;;;;;;;;;;10245654;28;20073;-65
2022/07/08 00:22:36;;;;;;;3.50;2.13;;;;;;;;;;10236349;28;20099;-66
2022/07/08 00:27:34;;;;;;;5.50;1.80;;;;;;;;;;10233337;28;20065;-64
2022/07/08 00:32:32;;;;;;;3.40;2.05;;;;;;;;;;10235691;28;20068;-64
2022/07/08 00:37:32;;;;;;;2.47;1.70;;;;;;;;;;10245611;28;20211;-65
2022/07/08 00:42:30;;;;;;;1.67;1.58;;;;;;;;;;10243903;28;20073;-65
2022/07/08 00:47:28;;;;;;;2.13;1.80;;;;;;;;;;10236927;28;20069;-66
2022/07/08 00:52:27;;;;;;;4.20;1.80;;;;;;;;;;10233707;28;20081;-65
2022/07/08 00:57:27;;;;;;;6.68;1.95;;;;;;;;;;10232981;28;20467;-65
2022/07/08 01:02:25;;;;;;;1.77;1.67;;;;;;;;;;10235709;28;20524;-65
2022/07/08 01:07:23;;;;;;;2.08;1.75;;;;;;;;;;10246059;28;20084;-65
2022/07/08 01:12:22;;;;;;;2.50;2.30;;;;;;;;;;10240192;28;20076;-65
2022/07/08 01:17:25;;;;;;;5.40;1.80;;;;;;;;;;10244776;28;20083;-66
2022/07/08 01:22:24;;;;;;;3.50;2.38;;;;;;;;;;10252538;28;20536;-65
2022/07/08 01:27:22;;;;;;;2.38;2.17;;;;;;;;;;10250460;28;20107;-66
2022/07/08 01:32:21;;;;;;;3.45;2.00;;;;;;;;;;10253080;28;20491;-65
2022/07/08 01:37:19;;;;;;;2.50;2.22;;;;;;;;;;10249890;28;20533;-69
2022/07/08 01:42:19;;;;;;;3.00;2.03;;;;;;;;;;10252877;28;20041;-68
2022/07/08 01:47:17;;;;;;;5.10;3.08;;;;;;;;;;10250032;28;20077;-68
2022/07/08 01:52:15;;;;;;;2.35;2.10;;;;;;;;;;10250168;28;20133;-68
2022/07/08 01:57:18;;;;;;;2.35;2.15;;;;;;;;;;10249700;28;20068;-69
2022/07/08 02:02:20;;;;;;;3.00;2.38;;;;;;;;;;10247401;28;20053;-68
2022/07/08 02:07:18;;;;;;;4.10;2.10;;;;;;;;;;10248993;28;20072;-68
2022/07/08 02:12:22;;;;;;;2.20;2.00;;;;;;;;;;10247936;28;20071;-68
2022/07/08 02:17:23;;;;;;;4.55;2.17;;;;;;;;;;10248406;28;20075;-68
2022/07/08 02:22:21;;;;;;;3.20;2.20;;;;;;;;;;10250356;28;20083;-69
2022/07/08 02:27:19;;;;;;;2.40;2.20;;;;;;;;;;10249793;28;20072;-69
2022/07/08 02:32:17;;;;;;;3.60;2.47;;;;;;;;;;10249187;28;20152;-69
2022/07/08 02:37:18;;;;;;;3.65;3.20;;;;;;;;;;10249128;28;20061;-69
2022/07/08 02:42:16;;;;;;;3.80;3.17;;;;;;;;;;10246417;28;20396;-69
2022/07/08 02:47:14;;;;;;;3.60;3.30;;;;;;;;;;10248128;28;20077;-69
2022/07/08 02:52:12;;;;;;;3.75;3.45;;;;;;;;;;10248220;28;20044;-68
2022/07/08 02:57:12;;;;;;;3.63;3.33;;;;;;;;;;10248741;28;20069;-68
2022/07/08 03:02:10;;;;;;;6.53;3.55;;;;;;;;;;10248380;28;20556;-69
2022/07/08 03:07:12;;;;;;;3.78;3.40;;;;;;;;;;10247752;28;20077;-69
2022/07/08 03:12:12;;;;;;;5.40;4.13;;;;;;;;;;10246361;28;20057;-69
2022/07/08 03:17:10;;;;;;;4.18;3.63;;;;;;;;;;10253937;28;20355;-71
2022/07/08 03:22:09;;;;;;;5.07;3.42;;;;;;;;;;10233866;28;20056;-69
2022/07/08 03:27:07;;;;;;;8.85;3.70;;;;;;;;;;10230828;28;20077;-69
2022/07/08 03:32:07;;;;;;;5.57;3.67;;;;;;;;;;10239354;28;20080;-68
2022/07/08 03:37:06;;;;;;;4.13;3.72;;;;;;;;;;10233190;28;20042;-68
2022/07/08 03:42:04;;;;;;;4.50;4.15;;;;;;;;;;10239063;28;20469;-68
2022/07/08 03:47:03;;;;;;;5.55;4.15;;;;;;;;;;10246408;28;20072;-70
2022/07/08 03:52:03;;;;;;;4.47;4.07;;;;;;;;;;10241576;28;20065;-69
2022/07/08 03:57:01;;;;;;;6.28;4.40;;;;;;;;;;10241347;28;20072;-69
2022/07/08 04:01:59;;;;;;;9.90;6.82;;;;;;;;;;10227488;28;20073;-69
2022/07/08 04:06:58;;;;;;;7.47;6.03;;;;;;;;;;10233385;28;20066;-69
2022/07/08 04:11:57;;;;;;;12.18;9.77;;;;;;;;;;10235964;28;20076;-68
2022/07/08 04:16:56;;;;;;;7.65;5.85;;;;;;;;;;10245932;28;20510;-69
2022/07/08 04:21:54;;;;;;;11.55;7.22;;;;;;;;;;10246535;28;20088;-69
2022/07/08 04:26:52;;;;;;;9.82;7.15;;;;;;;;;;10245491;28;20069;-69
2022/07/08 04:31:52;;;;;;;7.10;6.10;;;;;;;;;;10246771;28;20088;-69
2022/07/08 04:36:51;;;;;;;10.23;7.75;;;;;;;;;;10244140;28;20045;-68
2022/07/08 04:41:49;;;;;;;11.02;7.88;;;;;;;;;;10255844;28;20107;-68
2022/07/08 04:46:47;;;;;;;8.98;7.22;;;;;;;;;;10252450;28;20080;-67
2022/07/08 04:51:47;;;;;;;9.63;6.85;;;;;;;;;;10256231;28;20072;-68
2022/07/08 04:56:45;;;;;;;8.02;6.70;;;;;;;;;;10251414;28;20064;-69
2022/07/08 05:01:45;;;;;;;7.95;6.90;;;;;;;;;;10252849;28;20052;-69
2022/07/08 05:06:45;;;;;;;10.57;6.47;;;;;;;;;;10246208;28;20128;-69
2022/07/08 05:11:44;;;;;;;7.45;5.57;;;;;;;;;;10245388;28;20068;-69
2022/07/08 05:16:43;;;;;;;6.72;5.78;;;;;;;;;;10251650;28;20040;-69
2022/07/08 05:21:41;;;;;;;6.15;5.57;;;;;;;;;;10250450;28;20052;-69
2022/07/08 05:26:40;;;;;;;10.55;6.70;;;;;;;;;;10249617;28;20068;-70
2022/07/08 05:31:40;;;;;;;8.95;7.68;;;;;;;;;;10249358;28;20077;-68
2022/07/08 05:36:38;;;;;;;8.18;6.70;;;;;;;;;;10242507;28;20069;-68
2022/07/08 05:41:36;;;;;;;5.88;4.75;;;;;;;;;;10250637;28;20064;-68
2022/07/08 05:46:37;;;;;;;8.80;5.30;;;;;;;;;;10246310;28;20076;-69
2022/07/08 05:51:37;;;;;;;5.85;5.30;;;;;;;;;;10249012;28;20081;-69
2022/07/08 05:56:36;;;;;;;6.10;5.50;;;;;;;;;;10251900;28;20087;-69
2022/07/08 06:01:34;;;;;;;9.15;5.60;;;;;;;;;;10243839;28;20080;-68
2022/07/08 06:06:33;;;;;;;5.53;5.03;;;;;;;;;;10250028;28;20573;-68
2022/07/08 06:11:32;;;;;;;13.23;6.40;;;;;;;;;;10245768;28;20073;-68
2022/07/08 06:16:31;;;;;;;8.40;5.38;;;;;;;;;;10237024;28;20069;-68
2022/07/08 06:21:29;;;;;;;7.80;5.45;;;;;;;;;;10236618;28;20057;-68
2022/07/08 06:26:28;;;;;;;8.38;5.32;;;;;;;;;;10235720;28;20069;-68
2022/07/08 06:31:28;;;;;;;7.88;4.75;;;;;;;;;;10245312;28;20153;-68
2022/07/08 06:36:27;;;;;;;5.65;5.05;;;;;;;;;;10236274;28;20178;-68
2022/07/08 06:41:25;;;;;;;8.88;5.40;;;;;;;;;;10235266;28;20779;-68
2022/07/08 06:46:24;;;;;;;10.32;5.35;;;;;;;;;;10250463;28;20053;-68
2022/07/08 06:51:24;;;;;;;6.80;6.20;;;;;;;;;;10249319;28;20575;-68
2022/07/08 06:56:22;;;;;;;11.55;7.07;;;;;;;;;;10248147;28;20045;-69
2022/07/08 07:01:21;;;;;;;17.02;6.40;;;;;;;;;;10246269;28;20080;-68
2022/07/08 07:06:19;;;;;;;6.88;6.18;;;;;;;;;;10247348;28;20045;-69
2022/07/08 07:11:19;;;;;;;7.78;5.65;;;;;;;;;;10234664;28;20538;-69
2022/07/08 07:16:17;;;;;;;6.03;5.50;;;;;;;;;;10235115;28;20513;-69
2022/07/08 07:21:16;;;;;;;6.50;5.90;;;;;;;;;;10234175;28;20049;-67
2022/07/08 07:26:14;;;;;;;5.60;5.10;;;;;;;;;;10244624;28;20494;-68
2022/07/08 07:31:14;;;;;;;10.02;5.55;;;;;;;;;;10247298;28;20529;-68
2022/07/08 07:36:13;;;;;;;6.80;5.72;;;;;;;;;;10246105;28;20484;-68
2022/07/08 07:41:11;;;;;;;10.32;7.55;;;;;;;;;;10246918;28;20081;-68
2022/07/08 07:46:10;;;;;;;9.05;6.25;;;;;;;;;;10245650;28;20041;-68
2022/07/08 07:51:10;;;;;;;8.18;5.25;;;;;;;;;;10245066;28;20081;-67
2022/07/08 07:56:08;;;;;;;5.35;4.85;;;;;;;;;;10245322;28;20045;-68
2022/07/08 08:01:07;;;;;;;6.70;2.90;;;;;;;;;;10233610;28;20049;-68
2022/07/08 08:06:05;;;;;;;3.33;3.03;;;;;;;;;;10233466;28;20073;-68
2022/07/08 08:11:05;;;;;;;5.03;3.03;;;;;;;;;;10238413;28;20073;-67
2022/07/08 08:16:04;;;;;;;4.80;3.42;;;;;;;;;;10254685;28;20099;-68
2022/07/08 08:21:09;;;;;;;6.07;3.97;;;;;;;;;;10253768;28;20616;-67
2022/07/08 08:26:08;;;;;;;7.38;4.68;;;;;;;;;;10251803;28;20502;-67
2022/07/08 08:31:07;;;;;;;4.25;3.75;;;;;;;;;;10250451;28;20080;-67
2022/07/08 08:36:05;;;;;;;8.32;3.45;;;;;;;;;;10250281;28;20073;-67
2022/07/08 08:41:04;;;;;;;5.90;3.40;;;;;;;;;;10253217;28;20092;-70
2022/07/08 08:46:03;;;;;;;5.15;2.90;;;;;;;;;;10255264;28;20520;-69
2022/07/08 08:51:03;;;;;;;2.55;2.35;;;;;;;;;;10254690;28;20083;-68
2022/07/08 08:56:01;;;;;;;3.13;2.83;;;;;;;;;;10254363;28;20052;-68
2022/07/08 09:00:59;;;;;;;7.35;3.58;;;;;;;;;;10255176;28;20085;-68
2022/07/08 09:05:59;;;;;;;4.63;2.90;;;;;;;;;;10250198;28;20092;-68
2022/07/08 09:10:58;;;;;;;5.20;3.20;;;;;;;;;;10250533;28;20077;-69
2022/07/08 09:15:57;;;;;;;7.35;2.72;;;;;;;;;;10253307;28;20049;-69
2022/07/08 09:20:57;;;;;;;2.35;2.15;;;;;;;;;;10252035;28;20081;-69
2022/07/08 09:25:59;;;;;;;3.15;2.70;;;;;;;;;;10251648;28;20080;-69
2022/07/08 09:30:58;;;;;;;4.30;2.80;;;;;;;;;;10252093;28;20081;-69
2022/07/08 09:36:00;;;;;;;4.25;2.60;;;;;;;;;;10245398;28;20084;-69
2022/07/08 09:41:02;;;;;;;4.57;3.45;;;;;;;;;;10239468;28;20502;-69
2022/07/08 09:46:06;;;;;;;6.05;2.75;;;;;;;;;;10237926;28;20048;-69
2022/07/08 09:51:07;;;;;;;6.53;3.75;;;;;;;;;;10238586;28;20100;-69
2022/07/08 09:56:09;;;;;;;4.88;2.78;;;;;;;;;;10246821;28;20080;-69
2022/07/08 10:01:08;;;;;;;6.13;2.40;;;;;;;;;;10245456;28;20057;-70
2022/07/08 10:06:06;;;;;;;3.13;2.80;;;;;;;;;;10250685;28;20068;-69
2022/07/08 10:11:08;;;;;;;4.78;2.30;;;;;;;;;;10246600;28;20056;-69
2022/07/08 10:16:09;;;;;;;2.83;2.55;;;;;;;;;;10250860;28;20081;-69
2022/07/08 10:21:10;;;;;;;3.78;2.42;;;;;;;;;;10249661;28;20526;-68
2022/07/08 10:26:10;;;;;;;6.85;3.20;;;;;;;;;;10251466;28;20491;-69
2022/07/08 10:31:27;;;;;;;4.13;3.63;;;;;;;;;;10251145;28;20083;-69
2022/07/08 10:36:25;;;;;;;4.72;2.95;;;;;;;;;;10236296;28;20081;-68
2022/07/08 10:41:27;;;;;;;3.47;2.38;;;;;;;;;;10236019;28;20037;-68
2022/07/08 10:46:25;;;;;;;5.95;2.72;;;;;;;;;;10234733;28;20074;-68
2022/07/08 10:51:57;;;;;;;4.00;3.00;;;;;;;;;;10243697;28;20073;-69
2022/07/08 10:56:58;;;;;;;5.45;3.22;;;;;;;;;;10248276;28;20099;-70
2022/07/08 11:01:57;;;;;;;5.43;3.15;;;;;;;;;;10243671;28;20076;-69
2022/07/08 11:06:56;;;;;;;3.30;2.47;;;;;;;;;;10243848;28;20053;-69
2022/07/08 11:11:55;;;;;;;11.23;7.82;;;;;;;;;;10235313;28;20069;-69
2022/07/08 11:16:55;;;;;;;4.00;2.40;;;;;;;;;;10236219;28;20072;-69
2022/07/08 11:22:01;;;;;;;4.35;2.90;;;;;;;;;;10241919;28;20084;-68
2022/07/08 11:27:23;;;;;;;3.25;2.67;;;;;;;;;;10246442;28;20049;-68
2022/07/08 11:32:24;;;;;;;6.60;2.75;;;;;;;;;;10246811;28;20458;-69
2022/07/08 11:37:22;;;;;;;3.88;2.25;;;;;;;;;;10246239;28;20045;-68
2022/07/08 11:42:21;;;;;;;6.50;2.55;;;;;;;;;;10246029;28;20080;-69
2022/07/08 11:47:19;;;;;;;3.58;2.97;;;;;;;;;;10245719;28;20080;-69
2022/07/08 11:52:20;;;;;;;5.47;3.67;;;;;;;;;;10246497;28;20087;-68
2022/07/08 11:57:19;;;;;;;5.43;2.75;;;;;;;;;;10246118;28;20061;-68
2022/07/08 12:02:20;;;;;;;2.75;2.10;;;;;;;;;;10243602;28;20077;-69
2022/07/08 12:07:24;;;;;;;4.30;2.45;;;;;;;;;;10237670;28;20041;-69
2022/07/08 12:12:23;;;;;;;3.00;2.53;;;;;;;;;;10247372;28;20083;-67
2022/07/08 12:17:25;;;;;;;3.58;3.28;;;;;;;;;;10247458;28;20065;-69
2022/07/08 12:22:45;;;;;;;5.72;2.15;;;;;;;;;;10247462;28;20077;-69
2022/07/08 12:27:43;;;;;;;3.80;2.65;;;;;;;;;;10246724;28;20071;-68
2022/07/08 12:32:42;;;;;;;2.67;2.10;;;;;;;;;;10246094;28;20076;-69
2022/07/08 12:37:41;;;;;;;3.28;1.73;;;;;;;;;;10236358;28;20049;-69
2022/07/08 12:42:41;;;;;;;2.95;2.30;;;;;;;;;;10227076;28;20046;-68
2022/07/08 12:47:39;;;;;;;3.25;2.38;;;;;;;;;;10233808;28;20049;-68
2022/07/08 12:52:37;;;;;;;5.15;2.28;;;;;;;;;;10239907;28;20077;-68
2022/07/08 12:57:36;;;;;;;3.00;2.60;;;;;;;;;;10252058;28;20087;-68
2022/07/08 13:02:36;;;;;;;5.63;2.53;;;;;;;;;;10252953;28;20049;-69
2022/07/08 13:07:35;;;;;;;2.38;2.00;;;;;;;;;;10245061;28;20223;-69
2022/07/08 13:12:34;;;;;;;3.42;2.47;;;;;;;;;;10240227;28;20081;-67
2022/07/08 13:17:32;;;;;;;5.90;3.60;;;;;;;;;;10243233;28;20069;-68
2022/07/08 13:22:34;;;;;;;4.15;1.98;;;;;;;;;;10251879;28;20462;-68
2022/07/08 13:27:33;;;;;;;5.22;2.42;;;;;;;;;;10252177;28;20455;-68
2022/07/08 13:32:31;;;;;;;8.48;2.78;;;;;;;;;;10251794;28;20072;-68
2022/07/08 13:37:30;;;;;;;3.08;2.00;;;;;;;;;;10252010;28;20076;-69
2022/07/08 13:42:30;;;;;;;6.13;2.45;;;;;;;;;;10253219;28;20064;-68
2022/07/08 13:47:28;;;;;;;3.90;2.75;;;;;;;;;;10250984;28;20084;-68
2022/07/08 13:52:27;;;;;;;5.60;1.92;;;;;;;;;;10251206;28;20458;-68
2022/07/08 13:57:34;;;;;;;4.57;2.20;;;;;;;;;;10250806;28;20075;-68
2022/07/08 14:02:33;;;;;;;2.13;1.83;;;;;;;;;;10246052;28;20285;-69
2022/07/08 14:07:31;;;;;;;4.25;2.38;;;;;;;;;;10240401;28;20476;-69
2022/07/08 14:12:30;;;;;;;3.47;2.30;;;;;;;;;;10252208;28;20073;-70
2022/07/08 14:17:31;;;;;;;2.45;1.85;;;;;;;;;;10249884;28;20092;-69
2022/07/08 14:22:31;;;;;;;3.03;2.13;;;;;;;;;;10249085;28;20103;-69
2022/07/08 14:27:30;;;;;;;2.78;2.10;;;;;;;;;;10249630;28;20111;-69
2022/07/08 14:32:29;;;;;;;6.10;2.08;;;;;;;;;;10241634;28;20080;-69
2022/07/08 14:37:28;;;;;;;2.28;1.98;;;;;;;;;;10236415;28;20103;-69
2022/07/08 14:42:28;;;;;;;4.70;1.98;;;;;;;;;;10236967;28;20049;-69
2022/07/08 14:47:29;;;;;;;3.50;2.00;;;;;;;;;;10244312;28;20081;-69
2022/07/08 14:52:29;;;;;;;3.17;2.15;;;;;;;;;;10248515;28;20598;-70
2022/07/08 14:57:27;;;;;;;5.55;3.28;;;;;;;;;;10248674;28;20435;-70
2022/07/08 15:02:25;;;;;;;2.25;2.05;;;;;;;;;;10243637;28;20077;-69
2022/07/08 15:07:24;;;;;;;4.63;3.25;;;;;;;;;;10247002;28;20069;-69
2022/07/08 15:12:23;;;;;;;3.22;2.40;;;;;;;;;;10248524;28;20077;-69
2022/07/08 15:17:22;;;;;;;3.88;1.55;;;;;;;;;;10246268;28;20096;-69
2022/07/08 15:22:20;;;;;;;9.63;2.13;;;;;;;;;;10241564;28;20088;-68
2022/07/08 15:27:18;;;;;;;4.18;2.33;;;;;;;;;;10245057;28;20061;-69
2022/07/08 15:32:18;;;;;;;2.70;1.67;;;;;;;;;;10247180;28;20526;-68
2022/07/08 15:37:17;;;;;;;3.20;2.90;;;;;;;;;;10245180;28;20071;-69
2022/07/08 15:42:15;;;;;;;4.90;2.40;;;;;;;;;;10245307;28;20068;-69
2022/07/08 15:47:13;;;;;;;8.13;4.40;;;;;;;;;;10246981;28;20045;-68
2022/07/08 15:52:14;;;;;;;7.03;2.90;;;;;;;;;;10247268;28;20076;-69
2022/07/08 15:57:12;;;;;;;3.45;2.35;;;;;;;;;;10246392;28;20072;-68
2022/07/08 16:02:11;;;;;;;3.70;2.50;;;;;;;;;;10243409;28;20477;-69
2022/07/08 16:07:09;;;;;;;6.38;2.65;;;;;;;;;;10241171;28;20080;-69
2022/07/08 16:12:09;;;;;;;6.47;2.60;;;;;;;;;;10233555;28;20089;-69
2022/07/08 16:17:08;;;;;;;5.20;3.58;;;;;;;;;;10236281;28;20073;-69
2022/07/08 16:22:11;;;;;;;4.97;2.42;;;;;;;;;;10243423;28;20473;-67
2022/07/08 16:27:11;;;;;;;5.90;2.63;;;;;;;;;;10243757;28;20049;-68
2022/07/08 16:32:09;;;;;;;3.58;3.08;;;;;;;;;;10237989;28;20076;-68
2022/07/08 16:37:10;;;;;;;4.40;3.58;;;;;;;;;;10241359;28;20052;-68
2022/07/08 16:42:08;;;;;;;3.17;2.20;;;;;;;;;;10245110;28;20072;-69
2022/07/08 16:47:08;;;;;;;4.40;3.00;;;;;;;;;;10243422;28;20084;-68
2022/07/08 16:52:07;;;;;;;4.50;3.38;;;;;;;;;;10253943;28;20077;-67
2022/07/08 16:57:07;;;;;;;3.67;3.25;;;;;;;;;;10253673;28;20073;-64
2022/07/08 17:02:05;;;;;;;5.70;2.35;;;;;;;;;;10249066;28;20057;-66
2022/07/08 17:07:06;;;;;;;5.28;2.85;;;;;;;;;;10240437;28;20081;-66
2022/07/08 17:12:05;;;;;;;2.53;2.17;;;;;;;;;;10238017;28;20049;-66
2022/07/08 17:17:03;;;;;;;4.53;3.20;;;;;;;;;;10242842;28;20049;-65
2022/07/08 17:22:02;;;;;;;5.45;4.38;;;;;;;;;;10250435;28;20076;-66
2022/07/08 17:27:01;;;;;;;5.38;2.63;;;;;;;;;;10248298;28;20080;-66
2022/07/08 17:32:00;;;;;;;5.20;2.60;;;;;;;;;;10232586;28;20448;-66
2022/07/08 17:36:58;;;;;;;5.10;2.30;;;;;;;;;;10241318;28;20079;-65
2022/07/08 17:41:57;;;;;;;4.65;2.60;;;;;;;;;;10242586;28;20528;-65
2022/07/08 17:46:56;;;;;;;4.60;2.58;;;;;;;;;;10248422;28;20072;-65
2022/07/08 17:51:55;;;;;;;2.75;2.53;;;;;;;;;;10248786;28;20502;-65
2022/07/08 17:56:53;;;;;;;4.32;2.15;;;;;;;;;;10255351;28;20537;-65
2022/07/08 18:01:52;;;;;;;8.38;2.85;;;;;;;;;;10245972;28;20068;-66
2022/07/08 18:06:52;;;;;;;3.83;2.53;;;;;;;;;;10250621;28;20203;-65
2022/07/08 18:11:50;;;;;;;4.75;2.72;;;;;;;;;;10252631;28;20513;-65
2022/07/08 18:16:49;;;;;;;5.25;2.30;;;;;;;;;;10250069;28;20103;-66
2022/07/08 18:21:47;;;;;;;3.17;2.25;;;;;;;;;;10245061;28;20419;-66
2022/07/08 18:26:48;;;;;;;5.88;2.65;;;;;;;;;;10236982;28;20080;-66
2022/07/08 18:31:46;;;;;;;2.10;1.90;;;;;;;;;;10230974;28;20072;-66
2022/07/08 18:36:45;;;;;;;3.90;2.35;;;;;;;;;;10240730;28;20624;-65
2022/07/08 18:41:44;;;;;;;3.60;2.03;;;;;;;;;;10247098;28;20083;-65
2022/07/08 18:46:43;;;;;;;6.85;2.53;;;;;;;;;;10245419;28;20439;-66
2022/07/08 18:51:42;;;;;;;5.30;2.38;;;;;;;;;;10235929;28;20056;-65
2022/07/08 18:56:40;;;;;;;3.47;2.25;;;;;;;;;;10235134;28;20111;-66
2022/07/08 19:01:39;;;;;;;10.35;3.22;;;;;;;;;;10237618;28;20045;-66
2022/07/08 19:06:38;;;;;;;5.15;2.47;;;;;;;;;;10233676;28;20462;-65
2022/07/08 19:11:38;;;;;;;4.82;2.40;;;;;;;;;;10248450;28;20072;-66
2022/07/08 19:16:36;;;;;;;9.30;3.35;;;;;;;;;;10241790;28;20080;-65
2022/07/08 19:21:35;;;;;;;6.05;3.22;;;;;;;;;;10245372;28;20073;-64
2022/07/08 19:26:35;;;;;;;5.03;2.50;;;;;;;;;;10242889;28;20084;-65
2022/07/08 19:31:33;;;;;;;4.65;2.72;;;;;;;;;;10245445;28;20441;-66
2022/07/08 19:36:32;;;;;;;6.03;3.00;;;;;;;;;;10243470;28;20099;-64
2022/07/08 19:41:30;;;;;;;6.85;3.00;;;;;;;;;;10246665;28;20083;-64
2022/07/08 19:46:30;;;;;;;10.57;3.35;;;;;;;;;;10246898;28;20072;-65
2022/07/08 19:51:35;;;;;;;13.07;2.90;;;;;;;;;;10240061;28;20049;-65
2022/07/08 19:56:33;;;;;;;7.50;4.75;;;;;;;;;;10241452;28;20466;-65
2022/07/08 20:01:33;;;;;;;11.90;5.75;;;;;;;;;;10243827;28;20099;-65
2022/07/08 20:06:32;;;;;;;9.32;4.28;;;;;;;;;;10248811;28;20056;-66
2022/07/08 20:11:30;;;;;;;10.93;3.00;;;;;;;;;;10241770;28;20048;-65
2022/07/08 20:16:28;;;;;;;7.90;3.42;;;;;;;;;;10241330;28;20081;-65
2022/07/08 20:21:29;;;;;;;5.63;3.70;;;;;;;;;;10241191;28;20111;-64
2022/07/08 20:26:27;;;;;;;3.78;2.83;;;;;;;;;;10250127;28;20058;-64
2022/07/08 20:31:29;;;;;;;9.15;3.90;;;;;;;;;;10256738;28;20120;-64
2022/07/08 20:36:29;;;;;;;5.72;3.67;;;;;;;;;;10254582;28;20491;-64
2022/07/08 20:46:43;;;;;;;6.03;4.55;;;;;;;;;;10250393;28;20088;-66
2022/07/08 20:51:44;;;;;;;9.05;4.75;;;;;;;;;;10253794;28;20072;-65
2022/07/08 20:56:42;;;;;;;8.57;4.75;;;;;;;;;;10252816;28;20068;-65
2022/07/08 21:01:40;;;;;;;9.40;4.70;;;;;;;;;;10248803;28;20048;-66
2022/07/08 21:06:39;;;;;;;6.72;4.45;;;;;;;;;;10240387;28;20041;-66
2022/07/08 21:11:38;;;;;;;8.73;4.60;;;;;;;;;;10240790;28;20049;-63
2022/07/08 21:16:37;;;;;;;5.95;4.72;;;;;;;;;;10248296;28;20568;-65
2022/07/08 21:21:35;;;;;;;7.50;4.68;;;;;;;;;;10252781;28;20093;-64
2022/07/08 21:26:34;;;;;;;7.32;4.28;;;;;;;;;;10249346;28;20107;-64
2022/07/08 21:31:34;;;;;;;10.27;5.25;;;;;;;;;;10248477;28;20076;-65
2022/07/08 21:36:32;;;;;;;7.22;5.30;;;;;;;;;;10249697;28;20069;-64
2022/07/08 21:41:31;;;;;;;8.65;5.65;;;;;;;;;;10250393;28;20061;-65
2022/07/08 21:46:29;;;;;;;10.02;6.55;;;;;;;;;;10248968;28;20045;-65
2022/07/08 21:51:29;;;;;;;16.48;7.03;;;;;;;;;;10249718;28;20511;-64
2022/07/08 21:56:27;;;;;;;15.43;8.65;;;;;;;;;;10249298;28;20839;-64
2022/07/08 22:01:26;;;;;;;14.55;8.32;;;;;;;;;;10250327;28;20499;-65
2022/07/08 22:06:24;;;;;;;13.13;7.90;;;;;;;;;;10251609;28;20064;-64
2022/07/08 22:11:24;;;;;;;16.42;6.65;;;;;;;;;;10246533;28;20056;-66
2022/07/08 22:16:22;;;;;;;9.88;5.63;;;;;;;;;;10254838;28;20196;-65
2022/07/08 22:21:21;;;;;;;10.13;6.22;;;;;;;;;;10246554;28;20448;-64
2022/07/08 22:26:19;;;;;;;14.52;8.65;;;;;;;;;;10244487;28;20073;-64
2022/07/08 22:31:19;;;;;;;14.15;6.15;;;;;;;;;;10235218;28;20073;-63
2022/07/08 22:36:24;;;;;;;14.57;5.22;;;;;;;;;;10249818;28;20093;-65
2022/07/08 22:41:22;;;;;;;9.20;5.93;;;;;;;;;;10246706;28;20049;-65
2022/07/08 22:46:22;;;;;;;12.48;6.57;;;;;;;;;;10247431;28;20049;-65
2022/07/08 22:51:20;;;;;;;7.70;5.80;;;;;;;;;;10244761;28;20491;-64
2022/07/08 22:56:18;;;;;;;7.07;5.15;;;;;;;;;;10242880;28;20510;-64
2022/07/08 23:01:17;;;;;;;10.55;4.75;;;;;;;;;;10248321;28;20072;-64
2022/07/08 23:06:16;;;;;;;5.65;3.88;;;;;;;;;;10247853;28;20518;-64
2022/07/08 23:11:15;;;;;;;5.95;4.40;;;;;;;;;;10248415;28;20045;-64
2022/07/08 23:16:13;;;;;;;9.02;4.88;;;;;;;;;;10247194;28;20088;-64
2022/07/08 23:21:12;;;;;;;6.53;3.85;;;;;;;;;;10247756;28;20042;-64
2022/07/08 23:26:11;;;;;;;11.77;4.00;;;;;;;;;;10248004;28;20060;-64
2022/07/08 23:31:10;;;;;;;10.00;4.13;;;;;;;;;;10239969;28;20076;-64
2022/07/08 23:36:08;;;;;;;11.00;4.70;;;;;;;;;;10245762;28;20073;-64
2022/07/08 23:41:07;;;;;;;10.13;5.00;;;;;;;;;;10246726;28;20478;-66
2022/07/08 23:46:07;;;;;;;7.25;4.78;;;;;;;;;;10247709;28;20046;-65
2022/07/08 23:51:06;;;;;;;6.50;4.00;;;;;;;;;;10248314;28;20084;-66
2022/07/08 23:56:05;;;;;;;6.18;4.40;;;;;;;;;;10237177;28;20523;-65
